sensor_id;sensor_type;location;lat;lon;timestamp;temperature;humidity
25532;DHT22;13429;48.816;9.118;2024-03-23T00:54:38;9.40;73.00
25532;DHT22;13429;48.816;9.118;2024-03-23T00:57:04;9.60;72.60
25532;DHT22;13429;48.816;9.118;2024-03-23T00:59:29;9.60;72.60
25532;DHT22;13429;48.816;9.118;2024-03-23T01:01:56;9.60;72.50
25532;DHT22;13429;48.816;9.118;2024-03-23T01:04:22;9.60;72.60
25532;DHT22;13429;48.816;9.118;2024-03-23T01:06:47;9.70;72.60
25532;DHT22;13429;48.816;9.118;2024-03-23T01:09:13;9.70;72.40
25532;DHT22;13429;48.816;9.118;2024-03-23T01:11:39;9.60;72.60
25532;DHT22;13429;48.816;9.118;2024-03-23T01:14:05;9.50;72.90
25532;DHT22;13429;48.816;9.118;2024-03-23T01:16:31;9.60;73.10
25532;DHT22;13429;48.816;9.118;2024-03-23T01:18:57;9.90;73.10
25532;DHT22;13429;48.816;9.118;2024-03-23T01:21:23;10.10;72.60
25532;DHT22;13429;48.816;9.118;2024-03-23T01:23:48;10.30;72.10
25532;DHT22;13429;48.816;9.118;2024-03-23T01:26:14;10.60;70.80
25532;DHT22;13429;48.816;9.118;2024-03-23T01:28:40;10.80;70.10
25532;DHT22;13429;48.816;9.118;2024-03-23T01:31:06;11.10;69.30
25532;DHT22;13429;48.816;9.118;2024-03-23T01:33:31;11.20;68.70
25532;DHT22;13429;48.816;9.118;2024-03-23T01:35:57;11.20;69.10
25532;DHT22;13429;48.816;9.118;2024-03-23T01:38:23;11.20;68.80
25532;DHT22;13429;48.816;9.118;2024-03-23T01:40:48;11.30;68.20
25532;DHT22;13429;48.816;9.118;2024-03-23T01:43:14;11.40;68.20
25532;DHT22;13429;48.816;9.118;2024-03-23T01:45:40;11.60;67.70
25532;DHT22;13429;48.816;9.118;2024-03-23T01:48:06;11.80;66.80
25532;DHT22;13429;48.816;9.118;2024-03-23T01:50:32;11.90;67.00
25532;DHT22;13429;48.816;9.118;2024-03-23T01:53:01;11.90;66.50
25532;DHT22;13429;48.816;9.118;2024-03-23T01:55:27;12.00;66.40
25532;DHT22;13429;48.816;9.118;2024-03-23T01:57:56;12.10;65.90
25532;DHT22;13429;48.816;9.118;2024-03-23T02:00:23;12.10;66.00
25532;DHT22;13429;48.816;9.118;2024-03-23T02:02:48;12.00;66.10
25532;DHT22;13429;48.816;9.118;2024-03-23T02:05:14;11.90;66.40
25532;DHT22;13429;48.816;9.118;2024-03-23T02:07:41;12.00;66.10
25532;DHT22;13429;48.816;9.118;2024-03-23T02:10:09;12.00;66.10
25532;DHT22;13429;48.816;9.118;2024-03-23T02:12:35;12.00;66.10
25532;DHT22;13429;48.816;9.118;2024-03-23T02:15:01;12.00;66.20
25532;DHT22;13429;48.816;9.118;2024-03-23T02:17:29;11.80;66.50
25532;DHT22;13429;48.816;9.118;2024-03-23T02:19:55;11.80;66.70
25532;DHT22;13429;48.816;9.118;2024-03-23T02:22:21;11.80;66.90
25532;DHT22;13429;48.816;9.118;2024-03-23T02:24:46;11.70;67.20
25532;DHT22;13429;48.816;9.118;2024-03-23T02:27:12;11.70;67.30
25532;DHT22;13429;48.816;9.118;2024-03-23T02:29:38;11.70;67.50
25532;DHT22;13429;48.816;9.118;2024-03-23T02:32:04;11.60;67.50
25532;DHT22;13429;48.816;9.118;2024-03-23T02:34:29;11.50;67.90
25532;DHT22;13429;48.816;9.118;2024-03-23T02:36:55;11.40;68.10
25532;DHT22;13429;48.816;9.118;2024-03-23T02:39:21;11.40;68.40
25532;DHT22;13429;48.816;9.118;2024-03-23T02:41:46;11.30;69.00
25532;DHT22;13429;48.816;9.118;2024-03-23T02:44:13;11.30;69.10
25532;DHT22;13429;48.816;9.118;2024-03-23T02:46:39;11.30;69.00
25532;DHT22;13429;48.816;9.118;2024-03-23T02:49:05;11.30;69.20
25532;DHT22;13429;48.816;9.118;2024-03-23T02:51:31;11.30;69.30
25532;DHT22;13429;48.816;9.118;2024-03-23T02:53:57;11.20;69.40
25532;DHT22;13429;48.816;9.118;2024-03-23T02:56:22;11.30;69.40
25532;DHT22;13429;48.816;9.118;2024-03-23T02:58:48;11.20;69.80
25532;DHT22;13429;48.816;9.118;2024-03-23T03:01:14;11.10;69.80
25532;DHT22;13429;48.816;9.118;2024-03-23T03:03:40;11.10;70.40
25532;DHT22;13429;48.816;9.118;2024-03-23T03:06:06;11.10;70.40
25532;DHT22;13429;48.816;9.118;2024-03-23T03:08:31;11.00;70.50
25532;DHT22;13429;48.816;9.118;2024-03-23T03:10:57;10.90;70.50
25532;DHT22;13429;48.816;9.118;2024-03-23T03:13:22;10.90;70.90
25532;DHT22;13429;48.816;9.118;2024-03-23T03:15:48;10.90;70.70
25532;DHT22;13429;48.816;9.118;2024-03-23T03:18:14;10.80;71.10
25532;DHT22;13429;48.816;9.118;2024-03-23T03:20:40;10.80;71.60
25532;DHT22;13429;48.816;9.118;2024-03-23T03:23:06;10.80;72.20
25532;DHT22;13429;48.816;9.118;2024-03-23T03:25:32;10.90;72.60
25532;DHT22;13429;48.816;9.118;2024-03-23T03:27:58;11.10;71.80
25532;DHT22;13429;48.816;9.118;2024-03-23T03:30:23;11.00;72.00
25532;DHT22;13429;48.816;9.118;2024-03-23T03:32:51;11.10;71.60
25532;DHT22;13429;48.816;9.118;2024-03-23T03:35:16;11.00;71.70
25532;DHT22;13429;48.816;9.118;2024-03-23T03:37:42;10.90;72.00
25532;DHT22;13429;48.816;9.118;2024-03-23T03:40:08;10.80;72.70
25532;DHT22;13429;48.816;9.118;2024-03-23T03:42:34;10.80;72.80
25532;DHT22;13429;48.816;9.118;2024-03-23T03:45:00;10.80;72.80
25532;DHT22;13429;48.816;9.118;2024-03-23T03:47:26;10.90;73.00
25532;DHT22;13429;48.816;9.118;2024-03-23T03:49:51;10.90;73.00
25532;DHT22;13429;48.816;9.118;2024-03-23T03:52:17;11.00;73.00
25532;DHT22;13429;48.816;9.118;2024-03-23T03:54:43;11.00;73.10
25532;DHT22;13429;48.816;9.118;2024-03-23T03:57:08;11.10;72.80
25532;DHT22;13429;48.816;9.118;2024-03-23T03:59:34;11.00;72.60
25532;DHT22;13429;48.816;9.118;2024-03-23T04:01:59;10.90;73.40
25532;DHT22;13429;48.816;9.118;2024-03-23T04:04:25;10.90;73.30
25532;DHT22;13429;48.816;9.118;2024-03-23T04:07:01;10.90;73.40
25532;DHT22;13429;48.816;9.118;2024-03-23T04:09:27;11.00;73.30
25532;DHT22;13429;48.816;9.118;2024-03-23T04:11:53;10.90;73.30
25532;DHT22;13429;48.816;9.118;2024-03-23T04:14:19;10.90;73.50
25532;DHT22;13429;48.816;9.118;2024-03-23T04:16:46;11.00;73.30
25532;DHT22;13429;48.816;9.118;2024-03-23T04:19:11;11.00;73.50
25532;DHT22;13429;48.816;9.118;2024-03-23T04:21:40;11.10;73.40
25532;DHT22;13429;48.816;9.118;2024-03-23T04:24:06;11.10;73.40
25532;DHT22;13429;48.816;9.118;2024-03-23T04:26:42;11.10;73.50
25532;DHT22;13429;48.816;9.118;2024-03-23T04:29:07;11.20;74.60
25532;DHT22;13429;48.816;9.118;2024-03-23T04:31:33;11.30;76.30
25532;DHT22;13429;48.816;9.118;2024-03-23T04:34:00;11.00;77.00
25532;DHT22;13429;48.816;9.118;2024-03-23T04:36:26;10.70;78.10
25532;DHT22;13429;48.816;9.118;2024-03-23T04:38:52;10.50;79.70
25532;DHT22;13429;48.816;9.118;2024-03-23T04:41:18;10.40;81.40
25532;DHT22;13429;48.816;9.118;2024-03-23T04:43:43;10.30;81.40
25532;DHT22;13429;48.816;9.118;2024-03-23T04:46:09;10.30;82.20
25532;DHT22;13429;48.816;9.118;2024-03-23T04:48:35;10.20;83.20
25532;DHT22;13429;48.816;9.118;2024-03-23T04:51:01;10.20;83.70
25532;DHT22;13429;48.816;9.118;2024-03-23T04:53:27;10.20;84.00
25532;DHT22;13429;48.816;9.118;2024-03-23T04:55:56;10.20;84.00
25532;DHT22;13429;48.816;9.118;2024-03-23T04:58:25;10.10;84.10
25532;DHT22;13429;48.816;9.118;2024-03-23T05:00:57;10.10;85.10
25532;DHT22;13429;48.816;9.118;2024-03-23T05:03:23;10.10;86.30
25532;DHT22;13429;48.816;9.118;2024-03-23T05:05:49;10.10;85.50
25532;DHT22;13429;48.816;9.118;2024-03-23T05:08:16;10.10;85.90
25532;DHT22;13429;48.816;9.118;2024-03-23T05:10:42;10.00;85.50
25532;DHT22;13429;48.816;9.118;2024-03-23T05:13:09;9.90;85.60
25532;DHT22;13429;48.816;9.118;2024-03-23T05:15:34;9.90;85.30
25532;DHT22;13429;48.816;9.118;2024-03-23T05:18:00;9.90;85.10
25532;DHT22;13429;48.816;9.118;2024-03-23T05:20:26;9.80;84.70
25532;DHT22;13429;48.816;9.118;2024-03-23T05:22:54;9.80;84.50
25532;DHT22;13429;48.816;9.118;2024-03-23T05:25:20;9.90;84.80
25532;DHT22;13429;48.816;9.118;2024-03-23T05:27:45;9.80;84.90
25532;DHT22;13429;48.816;9.118;2024-03-23T05:30:11;9.80;84.80
25532;DHT22;13429;48.816;9.118;2024-03-23T05:32:37;9.80;85.00
25532;DHT22;13429;48.816;9.118;2024-03-23T05:35:06;9.80;85.10
25532;DHT22;13429;48.816;9.118;2024-03-23T05:37:32;9.70;85.60
25532;DHT22;13429;48.816;9.118;2024-03-23T05:39:59;9.80;85.40
25532;DHT22;13429;48.816;9.118;2024-03-23T05:42:25;9.70;85.50
25532;DHT22;13429;48.816;9.118;2024-03-23T05:44:52;9.70;85.30
25532;DHT22;13429;48.816;9.118;2024-03-23T05:47:17;9.60;85.10
25532;DHT22;13429;48.816;9.118;2024-03-23T05:49:43;9.50;85.20
25532;DHT22;13429;48.816;9.118;2024-03-23T05:52:09;9.50;85.50
25532;DHT22;13429;48.816;9.118;2024-03-23T05:54:35;9.40;85.90
25532;DHT22;13429;48.816;9.118;2024-03-23T05:57:01;9.30;84.70
25532;DHT22;13429;48.816;9.118;2024-03-23T05:59:27;9.30;83.40
25532;DHT22;13429;48.816;9.118;2024-03-23T06:01:53;9.20;83.50
25532;DHT22;13429;48.816;9.118;2024-03-23T06:04:19;9.10;83.50
25532;DHT22;13429;48.816;9.118;2024-03-23T06:06:45;9.10;83.40
25532;DHT22;13429;48.816;9.118;2024-03-23T06:09:10;9.00;83.40
25532;DHT22;13429;48.816;9.118;2024-03-23T06:11:36;9.00;83.30
25532;DHT22;13429;48.816;9.118;2024-03-23T06:14:02;9.00;82.70
25532;DHT22;13429;48.816;9.118;2024-03-23T06:16:27;8.90;82.90
25532;DHT22;13429;48.816;9.118;2024-03-23T06:18:53;8.90;83.10
25532;DHT22;13429;48.816;9.118;2024-03-23T06:21:20;8.90;83.50
25532;DHT22;13429;48.816;9.118;2024-03-23T06:23:46;8.90;83.10
25532;DHT22;13429;48.816;9.118;2024-03-23T06:26:17;8.90;82.90
25532;DHT22;13429;48.816;9.118;2024-03-23T06:28:43;8.90;83.10
25532;DHT22;13429;48.816;9.118;2024-03-23T06:31:09;8.80;83.20
25532;DHT22;13429;48.816;9.118;2024-03-23T06:33:35;8.80;82.50
25532;DHT22;13429;48.816;9.118;2024-03-23T06:36:01;8.90;82.00
25532;DHT22;13429;48.816;9.118;2024-03-23T06:38:28;8.80;82.60
25532;DHT22;13429;48.816;9.118;2024-03-23T06:40:54;8.80;82.30
25532;DHT22;13429;48.816;9.118;2024-03-23T06:43:19;8.70;81.70
25532;DHT22;13429;48.816;9.118;2024-03-23T06:45:55;8.60;81.40
25532;DHT22;13429;48.816;9.118;2024-03-23T06:48:21;8.70;82.10
25532;DHT22;13429;48.816;9.118;2024-03-23T06:50:47;8.70;82.00
25532;DHT22;13429;48.816;9.118;2024-03-23T06:53:13;8.70;81.90
25532;DHT22;13429;48.816;9.118;2024-03-23T06:55:39;8.80;82.20
25532;DHT22;13429;48.816;9.118;2024-03-23T06:58:05;8.80;81.90
25532;DHT22;13429;48.816;9.118;2024-03-23T07:00:31;8.70;81.60
25532;DHT22;13429;48.816;9.118;2024-03-23T07:02:57;8.70;81.50
25532;DHT22;13429;48.816;9.118;2024-03-23T07:05:23;8.70;81.50
25532;DHT22;13429;48.816;9.118;2024-03-23T07:07:49;8.70;81.30
25532;DHT22;13429;48.816;9.118;2024-03-23T07:10:15;8.80;81.10
25532;DHT22;13429;48.816;9.118;2024-03-23T07:12:41;8.80;80.80
25532;DHT22;13429;48.816;9.118;2024-03-23T07:15:07;8.90;80.00
25532;DHT22;13429;48.816;9.118;2024-03-23T07:17:33;8.90;80.00
25532;DHT22;13429;48.816;9.118;2024-03-23T07:20:01;9.00;80.00
25532;DHT22;13429;48.816;9.118;2024-03-23T07:22:31;9.10;79.90
25532;DHT22;13429;48.816;9.118;2024-03-23T07:24:59;9.20;79.90
25532;DHT22;13429;48.816;9.118;2024-03-23T07:27:24;9.20;79.30
25532;DHT22;13429;48.816;9.118;2024-03-23T07:29:51;9.00;79.30
25532;DHT22;13429;48.816;9.118;2024-03-23T07:32:17;8.90;79.60
25532;DHT22;13429;48.816;9.118;2024-03-23T07:34:42;8.80;79.70
25532;DHT22;13429;48.816;9.118;2024-03-23T07:37:10;8.70;80.20
25532;DHT22;13429;48.816;9.118;2024-03-23T07:39:35;8.50;80.50
25532;DHT22;13429;48.816;9.118;2024-03-23T07:42:01;8.40;81.20
25532;DHT22;13429;48.816;9.118;2024-03-23T07:44:27;8.40;81.40
25532;DHT22;13429;48.816;9.118;2024-03-23T07:46:52;8.40;81.90
25532;DHT22;13429;48.816;9.118;2024-03-23T07:49:18;8.40;82.30
25532;DHT22;13429;48.816;9.118;2024-03-23T07:51:44;8.30;81.90
25532;DHT22;13429;48.816;9.118;2024-03-23T07:54:10;8.10;82.60
25532;DHT22;13429;48.816;9.118;2024-03-23T07:56:36;8.10;82.40
25532;DHT22;13429;48.816;9.118;2024-03-23T07:59:01;8.00;83.10
25532;DHT22;13429;48.816;9.118;2024-03-23T08:01:29;8.10;83.30
25532;DHT22;13429;48.816;9.118;2024-03-23T08:03:55;8.30;83.20
25532;DHT22;13429;48.816;9.118;2024-03-23T08:06:21;8.30;83.10
25532;DHT22;13429;48.816;9.118;2024-03-23T08:08:52;8.30;83.20
25532;DHT22;13429;48.816;9.118;2024-03-23T08:11:28;8.40;83.30
25532;DHT22;13429;48.816;9.118;2024-03-23T08:13:55;8.30;83.70
25532;DHT22;13429;48.816;9.118;2024-03-23T08:16:21;8.40;84.00
25532;DHT22;13429;48.816;9.118;2024-03-23T08:18:46;8.40;84.00
25532;DHT22;13429;48.816;9.118;2024-03-23T08:21:12;8.30;83.80
25532;DHT22;13429;48.816;9.118;2024-03-23T08:23:38;8.30;83.70
25532;DHT22;13429;48.816;9.118;2024-03-23T08:26:09;8.30;83.00
25532;DHT22;13429;48.816;9.118;2024-03-23T08:28:35;8.30;83.30
25532;DHT22;13429;48.816;9.118;2024-03-23T08:31:03;8.30;82.60
25532;DHT22;13429;48.816;9.118;2024-03-23T08:33:31;8.20;82.60
25532;DHT22;13429;48.816;9.118;2024-03-23T08:35:58;7.90;83.60
25532;DHT22;13429;48.816;9.118;2024-03-23T08:38:24;7.90;84.20
25532;DHT22;13429;48.816;9.118;2024-03-23T08:41:04;7.90;84.60
25532;DHT22;13429;48.816;9.118;2024-03-23T08:43:34;8.00;84.50
25532;DHT22;13429;48.816;9.118;2024-03-23T08:49:22;8.00;83.50
25532;DHT22;13429;48.816;9.118;2024-03-23T08:51:48;8.00;83.60
25532;DHT22;13429;48.816;9.118;2024-03-23T08:57:36;7.80;83.10
25532;DHT22;13429;48.816;9.118;2024-03-23T09:00:02;7.80;82.10
25532;DHT22;13429;48.816;9.118;2024-03-23T09:02:28;7.80;81.70
25532;DHT22;13429;48.816;9.118;2024-03-23T09:04:53;7.80;80.90
25532;DHT22;13429;48.816;9.118;2024-03-23T09:07:19;7.90;81.00
25532;DHT22;13429;48.816;9.118;2024-03-23T09:09:44;7.90;81.00
25532;DHT22;13429;48.816;9.118;2024-03-23T09:12:10;7.90;80.80
25532;DHT22;13429;48.816;9.118;2024-03-23T09:14:36;7.90;80.00
25532;DHT22;13429;48.816;9.118;2024-03-23T09:17:01;7.90;80.30
25532;DHT22;13429;48.816;9.118;2024-03-23T09:19:28;8.10;80.00
25532;DHT22;13429;48.816;9.118;2024-03-23T09:21:55;8.30;79.60
25532;DHT22;13429;48.816;9.118;2024-03-23T09:24:20;8.50;78.30
25532;DHT22;13429;48.816;9.118;2024-03-23T09:26:46;8.50;77.20
25532;DHT22;13429;48.816;9.118;2024-03-23T09:29:12;8.50;77.10
25532;DHT22;13429;48.816;9.118;2024-03-23T09:31:37;8.80;77.20
25532;DHT22;13429;48.816;9.118;2024-03-23T09:34:04;8.80;76.80
25532;DHT22;13429;48.816;9.118;2024-03-23T09:36:29;9.00;77.00
25532;DHT22;13429;48.816;9.118;2024-03-23T09:38:55;9.20;76.60
25532;DHT22;13429;48.816;9.118;2024-03-23T09:41:20;9.40;75.30
25532;DHT22;13429;48.816;9.118;2024-03-23T09:43:46;9.50;75.50
25532;DHT22;13429;48.816;9.118;2024-03-23T09:46:14;9.60;75.30
25532;DHT22;13429;48.816;9.118;2024-03-23T09:48:40;9.70;74.80
25532;DHT22;13429;48.816;9.118;2024-03-23T09:51:06;9.60;74.00
25532;DHT22;13429;48.816;9.118;2024-03-23T09:53:34;9.40;74.50
25532;DHT22;13429;48.816;9.118;2024-03-23T09:56:00;9.30;69.90
25532;DHT22;13429;48.816;9.118;2024-03-23T09:58:26;9.20;67.40
25532;DHT22;13429;48.816;9.118;2024-03-23T10:00:51;9.30;67.80
25532;DHT22;13429;48.816;9.118;2024-03-23T10:03:17;9.30;67.60
25532;DHT22;13429;48.816;9.118;2024-03-23T10:05:42;9.30;67.10
25532;DHT22;13429;48.816;9.118;2024-03-23T10:10:41;9.70;64.60
25532;DHT22;13429;48.816;9.118;2024-03-23T10:13:06;9.70;61.30
25532;DHT22;13429;48.816;9.118;2024-03-23T10:15:36;9.80;61.20
25532;DHT22;13429;48.816;9.118;2024-03-23T10:18:18;10.30;59.90
25532;DHT22;13429;48.816;9.118;2024-03-23T10:20:50;10.50;59.40
25532;DHT22;13429;48.816;9.118;2024-03-23T10:23:16;10.80;58.80
25532;DHT22;13429;48.816;9.118;2024-03-23T10:25:42;10.80;58.30
25532;DHT22;13429;48.816;9.118;2024-03-23T10:28:08;11.10;57.70
25532;DHT22;13429;48.816;9.118;2024-03-23T10:30:35;11.30;57.40
25532;DHT22;13429;48.816;9.118;2024-03-23T10:33:08;11.00;56.40
25532;DHT22;13429;48.816;9.118;2024-03-23T10:35:34;11.00;57.00
25532;DHT22;13429;48.816;9.118;2024-03-23T10:38:01;11.20;57.20
25532;DHT22;13429;48.816;9.118;2024-03-23T10:40:29;11.00;56.60
25532;DHT22;13429;48.816;9.118;2024-03-23T10:42:57;10.50;55.70
25532;DHT22;13429;48.816;9.118;2024-03-23T10:45:24;10.10;56.60
25532;DHT22;13429;48.816;9.118;2024-03-23T10:47:49;9.80;59.00
25532;DHT22;13429;48.816;9.118;2024-03-23T10:50:15;9.30;63.70
25532;DHT22;13429;48.816;9.118;2024-03-23T10:52:46;8.70;68.30
25532;DHT22;13429;48.816;9.118;2024-03-23T10:55:15;8.30;71.10
25532;DHT22;13429;48.816;9.118;2024-03-23T10:57:48;8.10;72.20
25532;DHT22;13429;48.816;9.118;2024-03-23T11:00:15;7.70;72.90
25532;DHT22;13429;48.816;9.118;2024-03-23T11:02:41;7.20;74.90
25532;DHT22;13429;48.816;9.118;2024-03-23T11:07:52;6.40;78.20
25532;DHT22;13429;48.816;9.118;2024-03-23T11:10:36;6.30;79.30
25532;DHT22;13429;48.816;9.118;2024-03-23T11:13:21;6.30;79.60
25532;DHT22;13429;48.816;9.118;2024-03-23T11:15:47;6.60;80.40
25532;DHT22;13429;48.816;9.118;2024-03-23T11:18:20;6.70;80.20
25532;DHT22;13429;48.816;9.118;2024-03-23T11:20:46;6.80;80.30
25532;DHT22;13429;48.816;9.118;2024-03-23T11:23:27;7.10;80.00
25532;DHT22;13429;48.816;9.118;2024-03-23T11:25:53;7.40;80.10
25532;DHT22;13429;48.816;9.118;2024-03-23T11:28:18;7.80;80.20
25532;DHT22;13429;48.816;9.118;2024-03-23T11:30:44;8.20;79.60
25532;DHT22;13429;48.816;9.118;2024-03-23T11:33:10;8.30;78.50
25532;DHT22;13429;48.816;9.118;2024-03-23T11:35:38;8.30;78.80
25532;DHT22;13429;48.816;9.118;2024-03-23T11:38:14;8.50;78.40
25532;DHT22;13429;48.816;9.118;2024-03-23T11:40:46;8.70;76.40
25532;DHT22;13429;48.816;9.118;2024-03-23T11:43:20;8.70;75.70
25532;DHT22;13429;48.816;9.118;2024-03-23T11:45:49;8.70;74.40
25532;DHT22;13429;48.816;9.118;2024-03-23T11:48:23;8.70;73.60
25532;DHT22;13429;48.816;9.118;2024-03-23T11:50:51;8.60;73.40
25532;DHT22;13429;48.816;9.118;2024-03-23T11:53:21;8.60;73.00
25532;DHT22;13429;48.816;9.118;2024-03-23T11:55:51;8.80;73.60
25532;DHT22;13429;48.816;9.118;2024-03-23T11:58:18;8.90;72.20
25532;DHT22;13429;48.816;9.118;2024-03-23T12:01:03;9.00;71.60
25532;DHT22;13429;48.816;9.118;2024-03-23T12:03:30;9.00;71.60
25532;DHT22;13429;48.816;9.118;2024-03-23T12:06:00;9.00;71.00
25532;DHT22;13429;48.816;9.118;2024-03-23T12:08:32;9.00;68.30
25532;DHT22;13429;48.816;9.118;2024-03-23T12:11:13;8.80;67.30
25532;DHT22;13429;48.816;9.118;2024-03-23T12:13:41;8.90;66.10
25532;DHT22;13429;48.816;9.118;2024-03-23T12:16:20;8.90;63.30
25532;DHT22;13429;48.816;9.118;2024-03-23T12:18:48;9.20;63.40
25532;DHT22;13429;48.816;9.118;2024-03-23T12:21:15;9.30;61.40
25532;DHT22;13429;48.816;9.118;2024-03-23T12:23:41;9.30;61.30
25532;DHT22;13429;48.816;9.118;2024-03-23T12:26:07;9.50;60.00
25532;DHT22;13429;48.816;9.118;2024-03-23T12:28:33;9.70;59.60
25532;DHT22;13429;48.816;9.118;2024-03-23T12:30:59;10.00;59.70
25532;DHT22;13429;48.816;9.118;2024-03-23T12:33:24;10.10;59.50
25532;DHT22;13429;48.816;9.118;2024-03-23T12:35:51;10.10;58.70
25532;DHT22;13429;48.816;9.118;2024-03-23T12:38:17;10.20;57.90
25532;DHT22;13429;48.816;9.118;2024-03-23T12:40:55;10.00;58.60
25532;DHT22;13429;48.816;9.118;2024-03-23T12:43:20;9.90;59.10
25532;DHT22;13429;48.816;9.118;2024-03-23T12:45:47;9.80;58.50
25532;DHT22;13429;48.816;9.118;2024-03-23T12:48:13;9.80;58.50
25532;DHT22;13429;48.816;9.118;2024-03-23T12:50:38;9.80;58.10
25532;DHT22;13429;48.816;9.118;2024-03-23T12:53:04;9.80;59.40
25532;DHT22;13429;48.816;9.118;2024-03-23T12:55:29;10.30;60.70
25532;DHT22;13429;48.816;9.118;2024-03-23T12:57:55;10.70;59.50
25532;DHT22;13429;48.816;9.118;2024-03-23T13:00:21;10.90;58.30
25532;DHT22;13429;48.816;9.118;2024-03-23T13:02:47;11.00;58.10
25532;DHT22;13429;48.816;9.118;2024-03-23T13:05:13;11.10;57.40
25532;DHT22;13429;48.816;9.118;2024-03-23T13:07:40;11.00;56.50
25532;DHT22;13429;48.816;9.118;2024-03-23T13:10:06;11.20;57.60
25532;DHT22;13429;48.816;9.118;2024-03-23T13:12:32;11.50;57.20
25532;DHT22;13429;48.816;9.118;2024-03-23T13:14:59;11.70;53.10
25532;DHT22;13429;48.816;9.118;2024-03-23T13:17:25;11.40;51.90
25532;DHT22;13429;48.816;9.118;2024-03-23T13:19:52;11.30;53.90
25532;DHT22;13429;48.816;9.118;2024-03-23T13:22:18;11.20;53.70
25532;DHT22;13429;48.816;9.118;2024-03-23T13:24:44;11.10;53.60
25532;DHT22;13429;48.816;9.118;2024-03-23T13:27:10;10.80;53.80
25532;DHT22;13429;48.816;9.118;2024-03-23T13:29:36;10.60;54.20
25532;DHT22;13429;48.816;9.118;2024-03-23T13:32:03;10.60;54.30
25532;DHT22;13429;48.816;9.118;2024-03-23T13:34:29;10.40;53.90
25532;DHT22;13429;48.816;9.118;2024-03-23T13:36:55;10.20;53.70
25532;DHT22;13429;48.816;9.118;2024-03-23T13:39:23;10.20;51.90
25532;DHT22;13429;48.816;9.118;2024-03-23T13:41:49;10.60;52.10
25532;DHT22;13429;48.816;9.118;2024-03-23T13:44:15;10.90;51.30
25532;DHT22;13429;48.816;9.118;2024-03-23T13:46:42;11.10;51.00
25532;DHT22;13429;48.816;9.118;2024-03-23T13:49:25;11.40;50.80
25532;DHT22;13429;48.816;9.118;2024-03-23T13:51:52;11.70;50.50
25532;DHT22;13429;48.816;9.118;2024-03-23T13:54:18;11.60;49.10
25532;DHT22;13429;48.816;9.118;2024-03-23T13:56:44;11.20;50.80
25532;DHT22;13429;48.816;9.118;2024-03-23T13:59:10;10.60;53.30
25532;DHT22;13429;48.816;9.118;2024-03-23T14:01:35;10.10;57.90
25532;DHT22;13429;48.816;9.118;2024-03-23T14:04:01;9.10;63.30
25532;DHT22;13429;48.816;9.118;2024-03-23T14:06:27;8.30;67.70
25532;DHT22;13429;48.816;9.118;2024-03-23T14:08:52;7.50;71.70
25532;DHT22;13429;48.816;9.118;2024-03-23T14:11:18;6.90;75.20
25532;DHT22;13429;48.816;9.118;2024-03-23T14:13:44;6.60;76.60
25532;DHT22;13429;48.816;9.118;2024-03-23T14:16:10;6.20;77.40
25532;DHT22;13429;48.816;9.118;2024-03-23T14:18:35;5.70;78.80
25532;DHT22;13429;48.816;9.118;2024-03-23T14:21:01;5.30;79.40
25532;DHT22;13429;48.816;9.118;2024-03-23T14:23:29;5.10;80.00
25532;DHT22;13429;48.816;9.118;2024-03-23T14:25:55;5.00;81.00
25532;DHT22;13429;48.816;9.118;2024-03-23T14:28:22;5.30;82.40
25532;DHT22;13429;48.816;9.118;2024-03-23T14:30:49;5.70;82.60
25532;DHT22;13429;48.816;9.118;2024-03-23T14:33:15;6.10;82.90
25532;DHT22;13429;48.816;9.118;2024-03-23T14:35:41;6.50;82.00
25532;DHT22;13429;48.816;9.118;2024-03-23T14:38:07;6.60;82.70
25532;DHT22;13429;48.816;9.118;2024-03-23T14:40:33;6.80;81.10
25532;DHT22;13429;48.816;9.118;2024-03-23T14:42:58;7.00;81.50
25532;DHT22;13429;48.816;9.118;2024-03-23T14:45:24;7.00;80.30
25532;DHT22;13429;48.816;9.118;2024-03-23T14:47:53;7.10;81.10
25532;DHT22;13429;48.816;9.118;2024-03-23T14:50:20;7.30;81.30
25532;DHT22;13429;48.816;9.118;2024-03-23T14:52:47;7.30;80.20
25532;DHT22;13429;48.816;9.118;2024-03-23T14:55:13;7.20;81.10
25532;DHT22;13429;48.816;9.118;2024-03-23T14:57:39;7.30;80.90
25532;DHT22;13429;48.816;9.118;2024-03-23T15:00:09;7.30;79.80
25532;DHT22;13429;48.816;9.118;2024-03-23T15:02:38;7.20;79.80
25532;DHT22;13429;48.816;9.118;2024-03-23T15:05:04;7.20;79.30
25532;DHT22;13429;48.816;9.118;2024-03-23T15:07:33;7.20;78.60
25532;DHT22;13429;48.816;9.118;2024-03-23T15:09:59;7.30;77.50
25532;DHT22;13429;48.816;9.118;2024-03-23T15:12:24;7.50;78.30
25532;DHT22;13429;48.816;9.118;2024-03-23T15:14:50;7.40;76.50
25532;DHT22;13429;48.816;9.118;2024-03-23T15:17:16;7.30;76.90
25532;DHT22;13429;48.816;9.118;2024-03-23T15:19:42;7.30;77.20
25532;DHT22;13429;48.816;9.118;2024-03-23T15:22:08;7.20;76.10
25532;DHT22;13429;48.816;9.118;2024-03-23T15:24:34;7.20;77.00
25532;DHT22;13429;48.816;9.118;2024-03-23T15:27:03;7.20;76.10
25532;DHT22;13429;48.816;9.118;2024-03-23T15:29:29;7.30;77.30
25532;DHT22;13429;48.816;9.118;2024-03-23T15:31:54;7.30;76.80
25532;DHT22;13429;48.816;9.118;2024-03-23T15:34:21;7.30;76.00
25532;DHT22;13429;48.816;9.118;2024-03-23T15:36:49;7.30;76.00
25532;DHT22;13429;48.816;9.118;2024-03-23T15:39:19;7.50;76.40
25532;DHT22;13429;48.816;9.118;2024-03-23T15:41:45;7.60;76.00
25532;DHT22;13429;48.816;9.118;2024-03-23T15:44:11;7.70;75.40
25532;DHT22;13429;48.816;9.118;2024-03-23T15:46:37;7.60;75.60
25532;DHT22;13429;48.816;9.118;2024-03-23T15:49:03;7.80;75.50
25532;DHT22;13429;48.816;9.118;2024-03-23T15:51:30;7.80;74.00
25532;DHT22;13429;48.816;9.118;2024-03-23T15:53:59;7.90;73.90
25532;DHT22;13429;48.816;9.118;2024-03-23T15:56:25;7.90;73.20
25532;DHT22;13429;48.816;9.118;2024-03-23T15:58:50;7.90;73.80
25532;DHT22;13429;48.816;9.118;2024-03-23T16:01:16;7.90;73.50
25532;DHT22;13429;48.816;9.118;2024-03-23T16:03:42;7.90;72.80
25532;DHT22;13429;48.816;9.118;2024-03-23T16:06:08;7.90;72.50
25532;DHT22;13429;48.816;9.118;2024-03-23T16:08:34;7.90;72.10
25532;DHT22;13429;48.816;9.118;2024-03-23T16:11:00;7.80;72.40
25532;DHT22;13429;48.816;9.118;2024-03-23T16:13:26;7.80;71.50
25532;DHT22;13429;48.816;9.118;2024-03-23T16:15:58;7.80;71.90
25532;DHT22;13429;48.816;9.118;2024-03-23T16:18:24;7.70;71.40
25532;DHT22;13429;48.816;9.118;2024-03-23T16:20:53;7.60;68.90
25532;DHT22;13429;48.816;9.118;2024-03-23T16:23:19;7.40;68.90
25532;DHT22;13429;48.816;9.118;2024-03-23T16:25:52;7.30;68.00
25532;DHT22;13429;48.816;9.118;2024-03-23T16:28:28;7.30;68.50
25532;DHT22;13429;48.816;9.118;2024-03-23T16:33:31;7.20;68.90
25532;DHT22;13429;48.816;9.118;2024-03-23T16:36:10;7.20;68.70
25532;DHT22;13429;48.816;9.118;2024-03-23T16:38:40;7.10;68.10
25532;DHT22;13429;48.816;9.118;2024-03-23T16:41:10;7.10;69.30
25532;DHT22;13429;48.816;9.118;2024-03-23T16:43:38;7.10;68.90
25532;DHT22;13429;48.816;9.118;2024-03-23T16:46:09;7.00;69.90